createdAt,value
2023-03-02T00:00:47.932Z,1012
2023-03-02T00:01:49.025Z,1012
2023-03-02T00:02:50.105Z,1011.9
2023-03-02T00:03:51.162Z,1012
2023-03-02T00:04:52.078Z,1012
2023-03-02T00:05:53.042Z,1012
2023-03-02T00:06:54.059Z,1011.2
2023-03-02T00:07:55.043Z,1011.7
2023-03-02T00:08:56.058Z,1011.9
2023-03-02T00:09:57.079Z,1011.9
2023-03-02T00:10:58.127Z,1012
2023-03-02T00:11:59.022Z,1012
2023-03-02T00:13:00.096Z,1012
2023-03-02T00:14:01.039Z,1011.9
2023-03-02T00:15:02.040Z,1011.9
2023-03-02T00:16:03.143Z,1011.9
2023-03-02T00:17:04.119Z,1011.9
2023-03-02T00:18:05.080Z,1011.9
2023-03-02T00:19:06.122Z,1011.9
2023-03-02T00:20:07.101Z,1011.9
2023-03-02T00:21:08.068Z,1011.9
2023-03-02T00:22:10.804Z,1011.9
2023-03-02T00:23:10.112Z,1011.9
2023-03-02T00:24:11.098Z,1011.9
2023-03-02T00:25:12.042Z,1011.9
2023-03-02T00:26:13.059Z,1011.9
2023-03-02T00:27:14.099Z,1011.9
2023-03-02T00:28:15.081Z,1011.9
2023-03-02T00:29:16.080Z,1011.8
2023-03-02T00:30:17.060Z,1011.9
2023-03-02T00:31:18.126Z,1011.9
2023-03-02T00:32:19.064Z,1011.9
2023-03-02T00:33:20.081Z,1011.9
2023-03-02T00:34:21.097Z,1011.9
2023-03-02T00:35:22.106Z,1011.9
2023-03-02T00:36:23.090Z,1011.9
2023-03-02T00:37:24.098Z,1011.8
2023-03-02T00:38:25.106Z,1011.8
2023-03-02T00:39:26.056Z,1011.9
2023-03-02T00:40:27.037Z,1011.9
2023-03-02T00:41:28.048Z,1011.8
2023-03-02T00:42:29.056Z,1011.8
2023-03-02T00:43:30.078Z,1011.8
2023-03-02T00:44:31.059Z,1011.8
2023-03-02T00:45:32.036Z,1011.9
2023-03-02T00:46:33.322Z,1011.9
2023-03-02T00:47:34.060Z,1011.8
2023-03-02T00:48:35.079Z,1011.8
2023-03-02T00:49:36.057Z,1011.8
2023-03-02T00:50:37.076Z,1011.8
2023-03-02T00:51:38.090Z,1011.8
2023-03-02T00:52:39.078Z,1011.8
2023-03-02T00:53:40.117Z,1011.9
2023-03-02T00:54:41.056Z,1011.8
2023-03-02T00:55:42.037Z,1011.8
2023-03-02T00:56:43.117Z,1011.8
2023-03-02T00:57:44.103Z,1011.8
2023-03-02T00:58:45.115Z,1011
2023-03-02T00:59:46.041Z,1011.6
2023-03-02T01:00:47.035Z,1011.7
2023-03-02T01:01:48.056Z,1011.8
2023-03-02T01:02:49.176Z,1011.8
2023-03-02T01:03:50.089Z,1011.7
2023-03-02T01:04:51.090Z,1011.7
2023-03-02T01:05:52.040Z,1011.8
2023-03-02T01:06:53.101Z,1011.7
2023-03-02T01:07:54.005Z,1011.6
2023-03-02T01:08:55.075Z,1011.6
2023-03-02T01:09:56.052Z,1011.6
2023-03-02T01:10:57.046Z,1011.4
2023-03-02T01:11:58.080Z,1011.5
2023-03-02T01:12:59.045Z,1011.6
2023-03-02T01:14:00.114Z,1011.6
2023-03-02T01:15:01.141Z,1011.6
2023-03-02T01:16:02.117Z,1011.5
2023-03-02T01:17:03.064Z,1011.5
2023-03-02T01:18:04.043Z,1011.5
2023-03-02T01:19:05.146Z,1011.5
2023-03-02T01:20:06.042Z,1011.5
2023-03-02T01:21:07.102Z,1011.5
2023-03-02T01:22:08.117Z,1011.4
2023-03-02T01:23:09.063Z,1011.4
2023-03-02T01:24:10.104Z,1011.4
2023-03-02T01:25:11.174Z,1011.4
2023-03-02T01:26:12.112Z,1010.7
2023-03-02T01:27:13.076Z,1011.2
2023-03-02T01:28:14.106Z,1011.3
2023-03-02T01:29:15.084Z,1011.3
2023-03-02T01:30:16.192Z,1011.4
2023-03-02T01:31:17.163Z,1011.4
2023-03-02T01:32:18.192Z,1011.3
2023-03-02T01:33:19.081Z,1011.3
2023-03-02T01:34:20.066Z,1011.3
2023-03-02T01:35:21.123Z,1011.3
2023-03-02T01:36:22.083Z,1011.3
2023-03-02T01:37:23.163Z,1011.3
2023-03-02T01:38:24.072Z,1011.2
2023-03-02T01:39:25.004Z,1011.3
2023-03-02T01:40:26.123Z,1011.4
2023-03-02T01:41:27.065Z,1011.3
2023-03-02T01:42:28.103Z,1011.3
2023-03-02T01:43:29.105Z,1011.3
2023-03-02T01:44:30.124Z,1011.3
2023-03-02T01:45:31.219Z,1011.2
2023-03-02T01:46:32.326Z,1011.2
2023-03-02T01:47:33.084Z,1011.2
2023-03-02T01:48:34.107Z,1011.2
2023-03-02T01:49:35.074Z,1011.3
2023-03-02T01:50:36.086Z,1011.2
2023-03-02T01:51:37.143Z,1011.2
2023-03-02T01:52:38.112Z,1011.2
2023-03-02T01:53:39.088Z,1011.2
2023-03-02T01:54:40.122Z,1011.2
2023-03-02T01:55:41.084Z,1011.2
2023-03-02T01:56:42.129Z,1011.1
2023-03-02T01:57:43.125Z,1011.2
2023-03-02T01:58:44.082Z,1011.1
2023-03-02T01:59:45.096Z,1011.1
2023-03-02T02:00:46.246Z,1011.1
2023-03-02T02:01:47.161Z,1011.1
2023-03-02T02:02:48.170Z,1011.1
2023-03-02T02:06:57.178Z,1011.2
2023-03-02T02:07:58.141Z,1011.1
2023-03-02T02:08:59.097Z,1011
2023-03-02T02:10:00.154Z,1011
2023-03-02T02:11:01.118Z,1011
2023-03-02T02:12:02.087Z,1011
2023-03-02T02:13:03.118Z,1011
2023-03-02T02:14:04.130Z,1011
2023-03-02T02:15:05.080Z,1011
2023-03-02T02:16:06.113Z,1011
2023-03-02T02:17:07.164Z,1011
2023-03-02T02:18:08.129Z,1011
2023-03-02T02:19:09.103Z,1011
2023-03-02T02:20:10.116Z,1010.9
2023-03-02T02:21:11.145Z,1010.9
2023-03-02T02:22:12.121Z,1010.9
2023-03-02T02:23:13.123Z,1010.9
2023-03-02T02:24:14.118Z,1010.2
2023-03-02T02:25:15.071Z,1010.8
2023-03-02T02:26:16.165Z,1010.9
2023-03-02T02:27:17.095Z,1010.9
2023-03-02T02:28:18.077Z,1011
2023-03-02T02:29:19.136Z,1010.9
2023-03-02T02:30:20.177Z,1011
2023-03-02T02:31:21.203Z,1010.9
2023-03-02T02:32:22.249Z,1010.9
2023-03-02T02:33:23.109Z,1010.9
2023-03-02T02:34:24.159Z,1010.9
2023-03-02T02:35:25.130Z,1010.9
2023-03-02T02:36:26.121Z,1010.9
2023-03-02T02:37:27.140Z,1010.9
2023-03-02T02:38:28.138Z,1010.9
2023-03-02T02:39:29.160Z,1010.9
2023-03-02T02:40:30.087Z,1010.9
2023-03-02T02:41:31.096Z,1010.9
2023-03-02T02:42:32.065Z,1010.9
2023-03-02T02:43:33.117Z,1010.9
2023-03-02T02:44:34.168Z,1010.9
2023-03-02T02:45:35.184Z,1010.9
2023-03-02T02:46:36.136Z,1010.9
2023-03-02T02:47:37.100Z,1010.9
2023-03-02T02:48:38.096Z,1011
2023-03-02T02:49:39.061Z,1010.9
2023-03-02T02:50:40.186Z,1010.9
2023-03-02T02:51:41.152Z,1010.8
2023-03-02T02:52:42.115Z,1010.8
2023-03-02T02:53:43.142Z,1010.9
2023-03-02T02:54:44.102Z,1010.8
2023-03-02T02:55:45.220Z,1010.8
2023-03-02T02:56:46.118Z,1010.8
2023-03-02T02:57:47.115Z,1010.7
2023-03-02T02:58:48.140Z,1010.8
2023-03-02T02:59:49.097Z,1010.7
2023-03-02T03:00:50.302Z,1010.7
2023-03-02T03:01:51.185Z,1010.7
2023-03-02T03:02:52.177Z,1010.7
2023-03-02T03:03:53.167Z,1010.7
2023-03-02T03:04:54.160Z,1010.7
2023-03-02T03:05:55.118Z,1010.7
2023-03-02T03:06:56.196Z,1010.6
2023-03-02T03:07:57.104Z,1010.7
2023-03-02T03:09:01.222Z,1010.7
2023-03-02T03:10:02.220Z,1010.3
2023-03-02T03:11:03.120Z,1010.6
2023-03-02T03:12:04.187Z,1010.8
2023-03-02T03:13:05.137Z,1010.7
2023-03-02T03:14:06.118Z,1010.8
2023-03-02T03:15:07.137Z,1010.8
2023-03-02T03:16:08.142Z,1010.7
2023-03-02T03:17:09.218Z,1010.8
2023-03-02T03:18:10.137Z,1010.7
2023-03-02T03:19:11.135Z,1010.7
2023-03-02T03:20:12.155Z,1010.8
2023-03-02T03:21:13.136Z,1010.8
2023-03-02T03:22:14.178Z,1010.7
2023-03-02T03:23:15.084Z,1010.8
2023-03-02T03:24:16.140Z,1010.8
2023-03-02T03:25:17.220Z,1010.8
2023-03-02T03:26:18.072Z,1010.8
2023-03-02T03:27:19.151Z,1010.8
2023-03-02T03:28:20.110Z,1010.8
2023-03-02T03:29:21.119Z,1010.8
2023-03-02T03:30:22.110Z,1010.8
2023-03-02T03:31:23.171Z,1010.8
2023-03-02T03:32:24.216Z,1010.8
2023-03-02T03:33:25.149Z,1010.8
2023-03-02T03:34:26.112Z,1010.8
2023-03-02T03:35:27.202Z,1010.8
2023-03-02T03:36:28.172Z,1010.8
2023-03-02T03:37:29.268Z,1009.6
2023-03-02T03:38:30.168Z,1010.6
2023-03-02T03:39:31.156Z,1010.7
2023-03-02T03:40:32.129Z,1010.7
2023-03-02T03:41:33.154Z,1010.7
2023-03-02T03:42:34.153Z,1010.7
2023-03-02T03:43:35.087Z,1010.7
2023-03-02T03:44:36.170Z,1010.8
2023-03-02T03:45:37.107Z,1010.7
2023-03-02T03:46:38.147Z,1010.8
2023-03-02T03:47:39.128Z,1010.7
2023-03-02T03:48:40.107Z,1010.7
2023-03-02T03:49:41.126Z,1010.7
2023-03-02T03:50:42.135Z,1010.7
2023-03-02T03:51:43.127Z,1010.8
2023-03-02T03:52:44.166Z,1010.7
2023-03-02T03:53:45.169Z,1010.7
2023-03-02T03:54:46.272Z,1010.7
2023-03-02T03:55:47.214Z,1010.6
2023-03-02T03:56:48.146Z,1010.6
2023-03-02T03:57:49.127Z,1010.6
2023-03-02T03:58:50.222Z,1010.7
2023-03-02T03:59:51.149Z,1010.6
2023-03-02T04:00:52.216Z,1010.6
2023-03-02T04:01:53.156Z,1010.6
2023-03-02T04:02:54.216Z,1010.6
2023-03-02T04:03:55.180Z,1010.7
2023-03-02T04:04:56.169Z,1010.7
2023-03-02T04:05:57.197Z,1010.7
2023-03-02T04:06:58.127Z,1010.6
2023-03-02T04:07:59.146Z,1010.6
2023-03-02T04:09:00.124Z,1010.7
2023-03-02T04:10:01.197Z,1010.7
2023-03-02T04:11:02.126Z,1010.6
2023-03-02T04:12:03.160Z,1010.6
2023-03-02T04:13:04.144Z,1010.6
2023-03-02T04:14:05.145Z,1010.6
2023-03-02T04:15:06.203Z,1010.6
2023-03-02T04:16:07.231Z,1010.7
2023-03-02T04:17:08.162Z,1010.6
2023-03-02T04:18:09.144Z,1010.7
2023-03-02T04:19:10.148Z,1010.6
2023-03-02T04:20:11.182Z,1010.7
2023-03-02T04:21:12.185Z,1010.6
2023-03-02T04:22:13.123Z,1010.7
2023-03-02T04:23:14.151Z,1010.6
2023-03-02T04:24:15.139Z,1010.6
2023-03-02T04:25:16.193Z,1010.6
2023-03-02T04:26:17.169Z,1010.6
2023-03-02T04:27:18.146Z,1010.6
2023-03-02T04:28:19.154Z,1010.5
2023-03-02T04:29:20.128Z,1010.6
2023-03-02T04:30:21.114Z,1010.6
2023-03-02T04:31:22.235Z,1010.6
2023-03-02T04:32:23.234Z,1010.6
2023-03-02T04:33:24.171Z,1010.6
2023-03-02T04:34:25.180Z,1010.6
2023-03-02T04:35:26.270Z,1010.6
2023-03-02T04:36:27.214Z,1010.6
2023-03-02T04:37:28.155Z,1010.6
2023-03-02T04:38:29.133Z,1010.6
2023-03-02T04:39:30.288Z,1010.6
2023-03-02T04:40:31.179Z,1010.6
2023-03-02T04:41:32.175Z,1010.7
2023-03-02T04:42:33.156Z,1010.6
2023-03-02T04:43:34.144Z,1010.5
2023-03-02T04:44:35.177Z,1010.5
2023-03-02T04:45:36.141Z,1010.5
2023-03-02T04:46:37.290Z,1010.5
2023-03-02T04:47:38.177Z,1010.5
2023-03-02T04:48:39.172Z,1010.5
2023-03-02T04:49:40.163Z,1010.5
2023-03-02T04:50:41.198Z,1010.5
2023-03-02T04:51:42.201Z,1010.5
2023-03-02T04:52:43.251Z,1010.5
2023-03-02T04:53:44.138Z,1010.6
2023-03-02T04:54:45.178Z,1010.6
2023-03-02T04:55:46.227Z,1010.5
2023-03-02T04:56:47.180Z,1010.6
2023-03-02T04:57:48.227Z,1010.6
2023-03-02T04:58:49.138Z,1010.5
2023-03-02T04:59:50.160Z,1010.5
2023-03-02T05:00:51.160Z,1010.4
2023-03-02T05:01:52.199Z,1010.4
2023-03-02T05:02:53.240Z,1010.5
2023-03-02T05:03:54.207Z,1010.4
2023-03-02T05:04:55.298Z,1010.4
2023-03-02T05:05:56.156Z,1010.4
2023-03-02T05:06:57.177Z,1010.4
2023-03-02T05:07:58.179Z,1010.5
2023-03-02T05:08:59.219Z,1010.7
2023-03-02T05:10:00.218Z,1010.5
2023-03-02T05:11:01.201Z,1010.4
2023-03-02T05:12:02.178Z,1010.5
2023-03-02T05:13:03.173Z,1010.5
2023-03-02T05:14:04.203Z,1010.4
2023-03-02T05:15:05.187Z,1010.4
2023-03-02T05:16:06.189Z,1010.5
2023-03-02T05:17:07.268Z,1010.5
2023-03-02T05:18:08.139Z,1010.4
2023-03-02T05:19:09.179Z,1010.4
2023-03-02T05:20:10.184Z,1010.5
2023-03-02T05:21:11.197Z,1010.5
2023-03-02T05:22:12.217Z,1010.4
2023-03-02T05:23:13.240Z,1010.4
2023-03-02T05:24:14.198Z,1010.4
2023-03-02T05:25:15.207Z,1010.5
2023-03-02T05:26:16.228Z,1010.5
2023-03-02T05:27:17.131Z,1010.5
2023-03-02T05:28:18.223Z,1010.5
2023-03-02T05:29:19.260Z,1010.5
2023-03-02T05:30:20.197Z,1010.5
2023-03-02T05:31:21.245Z,1010.4
2023-03-02T05:32:22.261Z,1010.5
2023-03-02T05:33:23.200Z,1010.4
2023-03-02T05:34:24.235Z,1010.5
2023-03-02T05:35:25.217Z,1010.4
2023-03-02T05:36:26.220Z,1010.4
2023-03-02T05:37:27.234Z,1010.4
2023-03-02T05:38:28.127Z,1010.5
2023-03-02T05:39:29.238Z,1010.4
2023-03-02T05:40:30.377Z,1010.5
2023-03-02T05:41:31.164Z,1010.5
2023-03-02T05:42:32.259Z,1010.5
2023-03-02T05:43:33.206Z,1010.5
2023-03-02T05:44:34.140Z,1010.5
2023-03-02T05:45:35.172Z,1010.4
2023-03-02T05:46:36.416Z,1010.5
2023-03-02T05:47:37.221Z,1010.5
2023-03-02T05:48:38.272Z,1010.5
2023-03-02T05:49:39.197Z,1010.5
2023-03-02T05:50:40.160Z,1010.5
2023-03-02T05:51:41.217Z,1010.5
2023-03-02T05:52:42.203Z,1010.5
2023-03-02T05:53:43.257Z,1010.5
2023-03-02T05:54:44.118Z,1010.5
2023-03-02T05:55:45.240Z,1010.5
2023-03-02T05:56:47.968Z,1010.5
2023-03-02T05:57:48.144Z,1010.6
2023-03-02T05:58:49.236Z,1010.6
2023-03-02T05:59:50.175Z,1010.6
2023-03-02T06:00:51.124Z,1010.6
2023-03-02T06:01:52.211Z,1010.6
2023-03-02T06:02:53.252Z,1010.6
2023-03-02T06:03:54.213Z,1010.6
2023-03-02T06:04:55.155Z,1010.5
2023-03-02T06:05:56.235Z,1010.6
2023-03-02T06:06:57.374Z,1010.7
2023-03-02T06:07:58.350Z,1010.7
2023-03-02T06:08:59.600Z,1010.7
2023-03-02T06:10:01.220Z,1010.6
2023-03-02T06:11:02.220Z,1010.6
2023-03-02T06:12:03.388Z,1010.7
2023-03-02T06:13:05.179Z,1010.7
2023-03-02T06:14:06.209Z,1010.7
2023-03-02T06:15:47.062Z,1010.7
2023-03-02T06:16:48.595Z,1010.7
2023-03-02T06:17:51.044Z,1010.7
2023-03-02T06:18:53.644Z,1010.7
2023-03-02T06:19:56.532Z,1010.7
2023-03-02T06:20:58.193Z,1010.7
2023-03-02T06:21:59.873Z,1010.8
2023-03-02T06:23:02.193Z,1010.7
2023-03-02T06:24:03.195Z,1010.8
2023-03-02T06:25:04.277Z,1010.8
2023-03-02T06:26:05.749Z,1010.8
2023-03-02T06:27:07.256Z,1010.8
2023-03-02T06:28:08.563Z,1010.8
2023-03-02T06:29:10.187Z,1010.7
2023-03-02T06:30:11.200Z,1010.7
2023-03-02T06:31:12.163Z,1010.7
2023-03-02T06:32:13.417Z,1010.7
2023-03-02T06:33:14.348Z,1010.7
2023-03-02T06:34:15.433Z,1010.7
2023-03-02T06:35:16.275Z,1010.7
2023-03-02T06:36:18.473Z,1010.7
2023-03-02T06:37:22.207Z,1010.8
2023-03-02T06:38:23.185Z,1010.7
2023-03-02T06:39:24.188Z,1010.8
2023-03-02T06:40:25.182Z,1010.8
2023-03-02T06:41:26.195Z,1010.8
2023-03-02T06:42:27.234Z,1010.8
2023-03-02T06:43:28.194Z,1010.8
2023-03-02T06:44:29.208Z,1010.8
2023-03-02T06:45:30.391Z,1010.8
2023-03-02T06:46:31.786Z,1010.8
2023-03-02T06:47:32.146Z,1010.9
2023-03-02T06:48:33.230Z,1010.8
2023-03-02T06:49:34.231Z,1010.8
2023-03-02T06:50:35.182Z,1010.8
2023-03-02T06:51:36.240Z,1010.8
2023-03-02T06:52:37.185Z,1010.9
2023-03-02T06:53:38.132Z,1010.8
2023-03-02T06:54:39.190Z,1010.9
2023-03-02T06:55:40.222Z,1010.9
2023-03-02T06:56:41.258Z,1010.9
2023-03-02T06:57:42.197Z,1010.9
2023-03-02T06:58:43.175Z,1010.8
2023-03-02T06:59:44.220Z,1010.8
2023-03-02T07:00:45.161Z,1010.8
2023-03-02T07:01:46.274Z,1010.7
2023-03-02T07:02:47.222Z,1010.8
2023-03-02T07:03:48.311Z,1010.8
2023-03-02T07:04:49.216Z,1010.7
2023-03-02T07:05:50.255Z,1010.8
2023-03-02T07:06:51.277Z,1010.8
2023-03-02T07:07:52.238Z,1010.8
2023-03-02T07:08:53.244Z,1010.7
2023-03-02T07:09:54.196Z,1010.7
2023-03-02T07:10:55.197Z,1010.7
2023-03-02T07:11:56.258Z,1010.7
2023-03-02T07:12:57.276Z,1010.7
2023-03-02T07:13:58.254Z,1010.7
2023-03-02T07:14:59.231Z,1010.7
2023-03-02T07:16:00.232Z,1010.7
2023-03-02T07:17:01.300Z,1010.7
2023-03-02T07:18:02.260Z,1010.7
2023-03-02T07:19:03.201Z,1010.6
2023-03-02T07:20:04.332Z,1010.6
2023-03-02T07:21:05.334Z,1010.5
2023-03-02T07:22:06.202Z,1010.6
2023-03-02T07:23:07.211Z,1010.6
2023-03-02T07:24:08.269Z,1010.6
2023-03-02T07:25:09.263Z,1010.5
2023-03-02T07:26:10.270Z,1010.5
2023-03-02T07:27:11.252Z,1010.5
2023-03-02T07:28:12.241Z,1010.5
2023-03-02T07:29:13.312Z,1010.5
2023-03-02T07:30:14.272Z,1010.5
2023-03-02T07:31:15.292Z,1010.5
2023-03-02T07:32:16.324Z,1010.5
2023-03-02T07:33:17.212Z,1010.5
2023-03-02T07:34:18.279Z,1010.6
2023-03-02T07:35:19.307Z,1010.6
2023-03-02T07:36:20.272Z,1010.5
2023-03-02T07:37:21.232Z,1010.5
2023-03-02T07:38:22.223Z,1010.5
2023-03-02T07:39:23.240Z,1010.5
2023-03-02T07:40:24.254Z,1010.5
2023-03-02T07:41:25.176Z,1010.5
2023-03-02T07:42:26.253Z,1010.5
2023-03-02T07:43:27.329Z,1010.5
2023-03-02T07:44:28.242Z,1010.5
2023-03-02T07:45:29.198Z,1010.5
2023-03-02T07:46:30.284Z,1010.4
2023-03-02T07:47:31.514Z,1010.5
2023-03-02T07:48:32.229Z,1010.5
2023-03-02T07:49:33.274Z,1010.5
2023-03-02T07:50:34.264Z,1010.4
2023-03-02T07:51:35.403Z,1010.3
2023-03-02T07:52:36.175Z,1010.3
2023-03-02T07:53:37.314Z,1010.4
2023-03-02T07:54:38.256Z,1010.4
2023-03-02T07:55:39.214Z,1010.4
2023-03-02T07:56:40.254Z,1010.4
2023-03-02T07:57:41.255Z,1010.5
2023-03-02T07:58:42.432Z,1010.4
2023-03-02T07:59:43.273Z,1010.5
2023-03-02T08:00:44.255Z,1010.5
2023-03-02T08:01:45.362Z,1010.4
2023-03-02T08:02:46.315Z,1010.4
2023-03-02T08:03:47.256Z,1010.4
2023-03-02T08:04:48.329Z,1010.4
2023-03-02T08:05:49.244Z,1010.4
2023-03-02T08:06:50.265Z,1010.4
2023-03-02T08:07:51.274Z,1010.4
2023-03-02T08:08:52.298Z,1010.4
2023-03-02T08:09:53.276Z,1010.4
2023-03-02T08:10:54.224Z,1010.3
2023-03-02T08:11:55.229Z,1010.4
2023-03-02T08:12:56.253Z,1010.4
2023-03-02T08:13:57.248Z,1010.3
2023-03-02T08:14:58.283Z,1010.3
2023-03-02T08:15:59.283Z,1010.4
2023-03-02T08:17:00.298Z,1010.4
2023-03-02T08:18:01.278Z,1010.4
2023-03-02T08:19:02.297Z,1010.4
2023-03-02T08:20:03.276Z,1010.4
2023-03-02T08:21:04.317Z,1010.4
2023-03-02T08:22:05.237Z,1010.3
2023-03-02T08:23:06.259Z,1010.4
2023-03-02T08:24:07.337Z,1010.3
2023-03-02T08:25:08.299Z,1010.3
2023-03-02T08:26:11.012Z,1010.3
2023-03-02T08:27:10.260Z,1010.3
2023-03-02T08:28:11.299Z,1010.3
2023-03-02T08:29:12.334Z,1010.2
2023-03-02T08:30:13.299Z,1010.3
2023-03-02T08:31:14.224Z,1010.3
2023-03-02T08:32:15.313Z,1010.3
2023-03-02T08:33:16.318Z,1010.3
2023-03-02T08:34:17.259Z,1010.4
2023-03-02T08:35:18.340Z,1010.3
2023-03-02T08:36:19.275Z,1010.3
2023-03-02T08:37:20.328Z,1010.3
2023-03-02T08:38:21.358Z,1010.3
2023-03-02T08:39:24.899Z,1010.3
2023-03-02T08:40:23.243Z,1010.3
2023-03-02T08:41:24.256Z,1010.3
2023-03-02T08:42:25.354Z,1010.3
2023-03-02T08:43:26.251Z,1010.3
2023-03-02T08:44:27.287Z,1010.3
2023-03-02T08:45:28.300Z,1010.3
2023-03-02T08:46:29.284Z,1010.3
2023-03-02T08:47:30.227Z,1010.3
2023-03-02T08:48:31.735Z,1010.3
2023-03-02T08:49:33.321Z,1010.3
2023-03-02T08:50:34.243Z,1010.3
2023-03-02T08:51:35.564Z,1010.3
2023-03-02T08:52:36.277Z,1010.3
2023-03-02T08:53:37.275Z,1010.3
2023-03-02T08:54:38.351Z,1010.3
2023-03-02T08:55:39.275Z,1010.2
2023-03-02T08:56:40.296Z,1010.3
2023-03-02T08:57:41.334Z,1010.2
2023-03-02T08:58:42.229Z,1010.2
2023-03-02T08:59:43.656Z,1010.2
2023-03-02T09:00:44.364Z,1010.2
2023-03-02T09:01:45.330Z,1010.2
2023-03-02T09:02:46.316Z,1010.3
2023-03-02T09:03:47.293Z,1010.2
2023-03-02T09:04:48.330Z,1010.2
2023-03-02T09:05:49.313Z,1010.2
2023-03-02T09:06:50.329Z,1010.2
2023-03-02T09:07:51.235Z,1010.2
2023-03-02T09:08:52.244Z,1010.2
2023-03-02T09:09:53.278Z,1010.2
2023-03-02T09:10:54.312Z,1010.2
2023-03-02T09:11:55.255Z,1010.2
2023-03-02T09:12:56.264Z,1010.2
2023-03-02T09:13:57.229Z,1010.1
2023-03-02T09:15:01.435Z,1010.1
2023-03-02T09:16:02.328Z,1010.1
2023-03-02T09:17:03.252Z,1010.1
2023-03-02T09:18:04.292Z,1010.1
2023-03-02T09:19:05.298Z,1010
2023-03-02T09:20:06.298Z,1010.1
2023-03-02T09:21:07.308Z,1010.1
2023-03-02T09:22:08.274Z,1010.1
2023-03-02T09:23:09.264Z,1009.7
2023-03-02T09:24:10.296Z,1010
2023-03-02T09:25:11.274Z,1010
2023-03-02T09:26:12.317Z,1010
2023-03-02T09:27:13.274Z,1010
2023-03-02T09:28:14.256Z,1010
2023-03-02T09:29:15.283Z,1010
2023-03-02T09:30:16.349Z,1010
2023-03-02T09:31:17.379Z,1009.9
2023-03-02T09:32:18.448Z,1009.9
2023-03-02T09:33:19.276Z,1009.9
2023-03-02T09:34:20.276Z,1009.9
2023-03-02T09:35:21.296Z,1009.9
2023-03-02T09:36:22.316Z,1009.9
2023-03-02T09:37:23.282Z,1009.9
2023-03-02T09:38:24.358Z,1009.9
2023-03-02T09:39:25.308Z,1009.9
2023-03-02T09:40:26.356Z,1010
2023-03-02T09:41:27.336Z,1009.9
2023-03-02T09:42:38.288Z,1009.9
2023-03-02T09:43:29.366Z,1009.9
2023-03-02T09:44:30.307Z,1009.9
2023-03-02T09:45:31.937Z,1009.9
2023-03-02T09:46:33.316Z,1009.8
2023-03-02T09:47:36.996Z,1009.8
2023-03-02T09:48:38.317Z,1009.8
2023-03-02T09:49:39.275Z,1009.8
2023-03-02T09:50:40.278Z,1009.8
2023-03-02T09:51:41.307Z,1009.7
2023-03-02T09:52:42.256Z,1009.7
2023-03-02T09:53:43.231Z,1009.8
2023-03-02T09:54:44.334Z,1009.8
2023-03-02T09:55:45.275Z,1009.8
2023-03-02T09:56:46.248Z,1009.8
2023-03-02T09:57:47.448Z,1009.8
2023-03-02T09:58:48.239Z,1009.8
2023-03-02T09:59:49.285Z,1009.7
2023-03-02T10:00:50.374Z,1009.8
2023-03-02T10:01:51.283Z,1009.8
2023-03-02T10:02:52.366Z,1009.8
2023-03-02T10:03:53.400Z,1009.8
2023-03-02T10:04:54.597Z,1009.7
2023-03-02T10:05:55.299Z,1009.7
2023-03-02T10:06:56.321Z,1009.8
2023-03-02T10:07:59.283Z,1009.7
2023-03-02T10:08:58.322Z,1009.7
2023-03-02T10:09:59.300Z,1009.7
2023-03-02T10:11:00.324Z,1009.7
2023-03-02T10:12:01.356Z,1009.7
2023-03-02T10:13:02.377Z,1009.7
2023-03-02T10:14:03.296Z,1009.7
2023-03-02T10:15:04.353Z,1009.6
2023-03-02T10:16:05.421Z,1009.6
2023-03-02T10:17:06.333Z,1009.6
2023-03-02T10:18:07.319Z,1009.7
2023-03-02T10:19:08.341Z,1009.6
2023-03-02T10:20:09.417Z,1009.6
2023-03-02T10:21:10.380Z,1009.6
2023-03-02T10:22:11.306Z,1009.7
2023-03-02T10:23:12.295Z,1009.6
2023-03-02T10:24:13.357Z,1009.6
2023-03-02T10:25:14.374Z,1009.6
2023-03-02T10:26:15.344Z,1009.6
2023-03-02T10:27:16.335Z,1009.6
2023-03-02T10:28:17.334Z,1009.6
2023-03-02T10:29:18.321Z,1009.7
2023-03-02T10:30:19.312Z,1009.7
2023-03-02T10:31:20.474Z,1009.6
2023-03-02T10:32:21.416Z,1009.6
2023-03-02T10:33:22.318Z,1009.6
2023-03-02T10:34:23.321Z,1009.6
2023-03-02T10:35:24.389Z,1009.6
2023-03-02T10:36:25.330Z,1009.6
2023-03-02T10:37:26.288Z,1009.5
2023-03-02T10:38:27.383Z,1009.5
2023-03-02T10:39:28.363Z,1009.5
2023-03-02T10:40:29.357Z,1009.5
2023-03-02T10:41:30.352Z,1009.5
2023-03-02T10:42:31.843Z,1009.5
2023-03-02T10:43:33.334Z,1009.5
2023-03-02T10:44:34.294Z,1009.4
2023-03-02T10:45:35.359Z,1009.4
2023-03-02T10:46:36.671Z,1009.5
2023-03-02T10:47:37.333Z,1009.5
2023-03-02T10:48:40.862Z,1009.4
2023-03-02T10:49:39.421Z,1009.4
2023-03-02T10:50:40.379Z,1009.4
2023-03-02T10:51:41.294Z,1009.4
2023-03-02T10:52:46.101Z,1009.4
2023-03-02T10:53:43.354Z,1009.4
2023-03-02T10:54:44.324Z,1009.4
2023-03-02T10:55:45.326Z,1009.3
2023-03-02T10:56:46.312Z,1009.4
2023-03-02T10:57:47.354Z,1009.3
2023-03-02T10:58:48.332Z,1009.3
2023-03-02T10:59:49.355Z,1009.2
2023-03-02T11:00:50.376Z,1009
2023-03-02T11:01:51.382Z,1009.2
2023-03-02T11:02:52.403Z,1009.2
2023-03-02T11:03:53.354Z,1009.2
2023-03-02T11:04:57.000Z,1009.2
2023-03-02T11:05:55.442Z,1009.2
2023-03-02T11:06:56.315Z,1009.2
2023-03-02T11:07:57.279Z,1009.2
2023-03-02T11:09:01.275Z,1009.1
2023-03-02T11:10:02.329Z,1009.1
2023-03-02T11:11:03.370Z,1009.1
2023-03-02T11:12:04.460Z,1009.1
2023-03-02T11:13:05.355Z,1009.1
2023-03-02T11:14:06.337Z,1009.1
2023-03-02T11:15:07.466Z,1009.1
2023-03-02T11:16:08.393Z,1009.1
2023-03-02T11:17:09.315Z,1009.1
2023-03-02T11:18:10.329Z,1009.1
2023-03-02T11:19:11.398Z,1009
2023-03-02T11:20:12.421Z,1009
2023-03-02T11:21:13.355Z,1009
2023-03-02T11:22:14.295Z,1009
2023-03-02T11:23:15.280Z,1009
2023-03-02T11:24:16.413Z,1009
2023-03-02T11:25:17.457Z,1008.9
2023-03-02T11:26:18.373Z,1009
2023-03-02T11:27:19.393Z,1009
2023-03-02T11:28:20.363Z,1009
2023-03-02T11:29:22.713Z,1009
2023-03-02T11:30:22.345Z,1009
2023-03-02T11:31:23.546Z,1008.9
2023-03-02T11:32:24.457Z,1009
2023-03-02T11:33:25.435Z,1008.9
2023-03-02T11:34:26.354Z,1008.9
2023-03-02T11:35:27.490Z,1008.9
2023-03-02T11:36:28.395Z,1008.9
2023-03-02T11:37:29.364Z,1008.8
2023-03-02T11:38:30.315Z,1008.8
2023-03-02T11:39:31.334Z,1008.8
2023-03-02T11:40:32.364Z,1008.8
2023-03-02T11:41:33.805Z,1008.8
2023-03-02T11:42:34.437Z,1008.8
2023-03-02T11:43:35.373Z,1008.8
2023-03-02T11:44:36.383Z,1008.8
2023-03-02T11:45:37.356Z,1008.8
2023-03-02T11:46:38.466Z,1008.7
2023-03-02T11:47:39.386Z,1008.7
2023-03-02T11:48:40.347Z,1008.7
2023-03-02T11:49:41.377Z,1008.7
2023-03-02T11:50:42.358Z,1008.7
2023-03-02T11:51:47.354Z,1008.7
2023-03-02T11:52:44.380Z,1008.6
2023-03-02T11:53:45.394Z,1008.6
2023-03-02T11:54:46.324Z,1008.7
2023-03-02T11:55:47.421Z,1008.7
2023-03-02T11:56:48.352Z,1008.6
2023-03-02T11:57:49.357Z,1008.6
2023-03-02T11:58:50.422Z,1008.6
2023-03-02T11:59:51.401Z,1008.6
2023-03-02T12:00:52.430Z,1008.6
2023-03-02T12:01:53.519Z,1008.6
2023-03-02T12:02:54.383Z,1008.6
2023-03-02T12:03:55.364Z,1008.5
2023-03-02T12:04:56.387Z,1008.5
2023-03-02T12:05:57.377Z,1008.5
2023-03-02T12:06:58.425Z,1008.5
2023-03-02T12:07:59.397Z,1008.5
2023-03-02T12:09:00.456Z,1008.5
2023-03-02T12:10:01.375Z,1008.5
2023-03-02T12:11:02.361Z,1008.5
2023-03-02T12:12:04.860Z,1008.5
2023-03-02T12:13:04.443Z,1008.5
2023-03-02T12:14:05.438Z,1008.4
2023-03-02T12:15:06.448Z,1008.5
2023-03-02T12:16:07.470Z,1008.4
2023-03-02T12:17:08.412Z,1008.4
2023-03-02T12:18:09.455Z,1008.3
2023-03-02T12:19:10.418Z,1008.3
2023-03-02T12:20:11.384Z,1008.3
2023-03-02T12:21:12.341Z,1008.3
2023-03-02T12:22:13.358Z,1008.3
2023-03-02T12:23:14.400Z,1008.3
2023-03-02T12:24:15.380Z,1008.3
2023-03-02T12:25:16.401Z,1008
2023-03-02T12:26:17.390Z,1008.3
2023-03-02T12:27:18.418Z,1008.3
2023-03-02T12:28:19.428Z,1008.3
2023-03-02T12:29:20.389Z,1008.3
2023-03-02T12:30:21.555Z,1008.3
2023-03-02T12:31:22.467Z,1008.3
2023-03-02T12:32:23.465Z,1008.2
2023-03-02T12:33:24.477Z,1008.3
2023-03-02T12:34:25.432Z,1008.2
2023-03-02T12:35:26.482Z,1008.2
2023-03-02T12:36:27.312Z,1008.2
2023-03-02T12:37:28.446Z,1008.3
2023-03-02T12:38:29.425Z,1008.2
2023-03-02T12:39:30.342Z,1008.2
2023-03-02T12:40:31.417Z,1008.2
2023-03-02T12:41:32.399Z,1008.2
2023-03-02T12:42:33.462Z,1008.2
2023-03-02T12:43:34.378Z,1008.2
2023-03-02T12:44:35.350Z,1008.1
2023-03-02T12:45:36.454Z,1008.1
2023-03-02T12:46:37.576Z,1008.1
2023-03-02T12:47:38.507Z,1008.1
2023-03-02T12:48:39.893Z,1008.1